createdAt,value
2019-02-09T00:01:01.029Z,7.10
2019-02-09T00:03:29.703Z,7.10
2019-02-09T00:05:58.059Z,7.20
2019-02-09T00:08:26.415Z,7.10
2019-02-09T00:10:55.250Z,7.10
2019-02-09T00:13:23.639Z,7.10
2019-02-09T00:15:51.999Z,7.10
2019-02-09T00:18:20.424Z,7.10
2019-02-09T00:20:49.065Z,7.10
2019-02-09T00:23:17.415Z,7.10
2019-02-09T00:25:45.771Z,7.00
2019-02-09T00:28:14.163Z,7.00
2019-02-09T00:30:42.519Z,7.00
2019-02-09T00:33:15.195Z,7.10
2019-02-09T00:35:43.585Z,7.10
2019-02-09T00:38:11.978Z,7.10
2019-02-09T00:40:42.455Z,7.10
2019-02-09T00:43:10.805Z,7.10
2019-02-09T00:45:40.064Z,7.00
2019-02-09T00:48:09.195Z,7.00
2019-02-09T00:50:38.558Z,7.00
2019-02-09T00:53:06.953Z,7.00
2019-02-09T00:55:35.878Z,7.10
2019-02-09T00:58:05.875Z,7.10
2019-02-09T01:00:34.363Z,7.10
2019-02-09T01:03:03.167Z,7.10
2019-02-09T01:05:40.549Z,7.10
2019-02-09T01:08:09.244Z,7.00
2019-02-09T01:10:43.509Z,7.10
2019-02-09T01:13:17.854Z,7.00
2019-02-09T01:15:50.877Z,6.90
2019-02-09T01:18:19.649Z,7.00
2019-02-09T01:20:48.329Z,6.90
2019-02-09T01:23:16.770Z,6.90
2019-02-09T01:25:45.393Z,6.90
2019-02-09T01:28:13.845Z,6.90
2019-02-09T01:30:42.311Z,6.90
2019-02-09T01:33:10.683Z,6.80
2019-02-09T01:35:41.111Z,6.90
2019-02-09T01:38:10.298Z,6.90
2019-02-09T01:40:39.781Z,6.90
2019-02-09T01:43:08.117Z,6.90
2019-02-09T01:45:36.463Z,6.90
2019-02-09T01:48:04.948Z,7.00
2019-02-09T01:50:37.859Z,6.90
2019-02-09T01:53:06.604Z,6.90
2019-02-09T01:55:36.138Z,6.90
2019-02-09T01:58:04.643Z,6.90
2019-02-09T02:06:14.617Z,6.90
2019-02-09T02:08:42.974Z,6.80
2019-02-09T02:11:11.429Z,6.80
2019-02-09T02:13:39.959Z,6.70
2019-02-09T02:16:08.308Z,6.70
2019-02-09T02:18:36.695Z,6.70
2019-02-09T02:21:05.751Z,6.60
2019-02-09T02:23:34.771Z,6.60
2019-02-09T02:26:03.159Z,6.60
2019-02-09T02:28:31.866Z,6.50
2019-02-09T02:31:00.225Z,6.50
2019-02-09T02:33:28.605Z,6.50
2019-02-09T02:35:57.630Z,6.40
2019-02-09T02:38:27.563Z,6.20
2019-02-09T02:40:56.627Z,6.10
2019-02-09T02:43:24.974Z,6.00
2019-02-09T02:45:55.530Z,5.90
2019-02-09T02:48:24.488Z,5.80
2019-02-09T02:51:12.300Z,5.80
2019-02-09T02:53:40.677Z,5.70
2019-02-09T02:56:09.052Z,5.60
2019-02-09T03:01:29.548Z,5.60
2019-02-09T03:03:57.921Z,5.50
2019-02-09T03:06:26.286Z,5.50
2019-02-09T03:08:54.739Z,5.50
2019-02-09T03:11:23.561Z,5.40
2019-02-09T03:13:51.935Z,5.40
2019-02-09T03:16:20.608Z,5.40
2019-02-09T03:18:48.975Z,5.40
2019-02-09T03:21:17.371Z,5.40
2019-02-09T03:23:45.804Z,5.40
2019-02-09T03:26:18.746Z,5.40
2019-02-09T03:28:47.242Z,5.40
2019-02-09T03:31:17.256Z,5.40
2019-02-09T03:33:46.967Z,5.40
2019-02-09T03:36:15.334Z,5.40
2019-02-09T03:41:41.440Z,5.40
2019-02-09T03:44:09.804Z,5.40
2019-02-09T03:46:38.220Z,5.40
2019-02-09T03:49:06.778Z,5.40
2019-02-09T03:51:35.331Z,5.40
2019-02-09T03:54:03.966Z,5.40
2019-02-09T03:56:32.362Z,5.40
2019-02-09T03:59:00.833Z,5.50
2019-02-09T04:01:29.162Z,5.40
2019-02-09T04:03:57.693Z,5.40
2019-02-09T04:06:26.058Z,5.40
2019-02-09T04:08:54.413Z,5.30
2019-02-09T04:11:22.792Z,5.30
2019-02-09T04:13:51.172Z,5.40
2019-02-09T04:16:19.868Z,5.30
2019-02-09T04:18:48.326Z,5.40
2019-02-09T04:21:16.679Z,5.40
2019-02-09T04:23:45.064Z,5.40
2019-02-09T04:26:13.683Z,5.30
2019-02-09T04:28:41.963Z,5.30
2019-02-09T04:31:10.642Z,5.40
2019-02-09T04:33:38.992Z,5.40
2019-02-09T04:36:07.386Z,5.40
2019-02-09T04:38:36.494Z,5.40
2019-02-09T04:41:04.927Z,5.30
2019-02-09T04:43:33.383Z,5.40
2019-02-09T04:46:01.735Z,5.40
2019-02-09T04:48:30.774Z,5.40
2019-02-09T04:50:59.177Z,5.40
2019-02-09T04:53:27.539Z,5.40
2019-02-09T04:55:55.901Z,5.40
2019-02-09T04:58:24.949Z,5.40
2019-02-09T05:00:53.311Z,5.40
2019-02-09T05:03:22.114Z,5.40
2019-02-09T05:05:50.807Z,5.50
2019-02-09T05:08:19.927Z,5.50
2019-02-09T05:10:48.278Z,5.50
2019-02-09T05:13:16.669Z,5.50
2019-02-09T05:15:45.013Z,5.50
2019-02-09T05:18:13.378Z,5.50
2019-02-09T05:20:41.764Z,5.50
2019-02-09T05:23:10.125Z,5.50
2019-02-09T05:25:39.340Z,5.50
2019-02-09T05:28:07.946Z,5.50
2019-02-09T05:30:36.455Z,5.60
2019-02-09T05:33:04.769Z,5.50
2019-02-09T05:35:35.844Z,5.50
2019-02-09T05:38:04.173Z,5.50
2019-02-09T05:40:32.565Z,5.50
2019-02-09T05:43:01.284Z,5.40
2019-02-09T05:45:30.506Z,5.40
2019-02-09T05:47:58.921Z,5.40
2019-02-09T05:50:27.263Z,5.40
2019-02-09T05:52:55.624Z,5.40
2019-02-09T05:55:24.006Z,5.40
2019-02-09T05:57:52.355Z,5.40
2019-02-09T06:03:36.683Z,5.30
2019-02-09T06:06:06.157Z,5.30
2019-02-09T06:08:34.503Z,5.30
2019-02-09T06:11:02.883Z,5.30
2019-02-09T06:13:31.236Z,5.20
2019-02-09T06:15:59.680Z,5.20
2019-02-09T06:18:28.031Z,5.20
2019-02-09T06:20:56.407Z,5.20
2019-02-09T06:23:25.565Z,5.30
2019-02-09T06:25:55.058Z,5.30
2019-02-09T06:28:23.489Z,5.30
2019-02-09T06:30:51.825Z,5.30
2019-02-09T06:33:20.887Z,5.30
2019-02-09T06:35:49.246Z,5.30
2019-02-09T06:38:17.612Z,5.30
2019-02-09T06:40:46.463Z,5.30
2019-02-09T06:43:35.891Z,5.30
2019-02-09T06:46:04.421Z,5.30
2019-02-09T06:48:32.781Z,5.30
2019-02-09T06:51:02.102Z,5.30
2019-02-09T06:53:31.125Z,5.40
2019-02-09T06:55:59.549Z,5.40
2019-02-09T06:58:29.434Z,5.40
2019-02-09T07:00:57.803Z,5.40
2019-02-09T07:03:27.457Z,5.40
2019-02-09T07:05:55.807Z,5.40
2019-02-09T07:08:24.731Z,5.40
2019-02-09T07:10:53.106Z,5.40
2019-02-09T07:13:21.458Z,5.40
2019-02-09T07:15:49.823Z,5.40
2019-02-09T07:18:18.218Z,5.30
2019-02-09T07:20:46.794Z,5.30
2019-02-09T07:23:15.188Z,5.30
2019-02-09T07:25:43.586Z,5.30
2019-02-09T07:28:11.950Z,5.40
2019-02-09T07:30:40.307Z,5.30
2019-02-09T07:33:09.466Z,5.40
2019-02-09T07:35:39.299Z,5.40
2019-02-09T07:38:08.326Z,5.40
2019-02-09T07:40:37.258Z,5.30
2019-02-09T07:43:05.635Z,5.40
2019-02-09T07:45:35.248Z,5.50
2019-02-09T07:48:04.954Z,5.60
2019-02-09T07:50:33.254Z,5.70
2019-02-09T07:53:01.910Z,5.80
2019-02-09T07:55:30.274Z,5.90
2019-02-09T07:57:58.641Z,5.90
2019-02-09T08:00:34.782Z,5.90
2019-02-09T08:03:03.815Z,5.90
2019-02-09T08:05:33.397Z,5.90
2019-02-09T08:08:01.744Z,5.90
2019-02-09T08:10:34.704Z,5.90
2019-02-09T08:13:07.605Z,6.00
2019-02-09T08:15:35.956Z,6.00
2019-02-09T08:18:05.956Z,6.00
2019-02-09T08:20:34.517Z,6.00
2019-02-09T08:23:10.660Z,6.10
2019-02-09T08:25:40.935Z,6.10
2019-02-09T08:28:11.488Z,6.20
2019-02-09T08:30:42.135Z,6.20
2019-02-09T08:33:10.502Z,6.20
2019-02-09T08:35:40.295Z,6.20
2019-02-09T08:38:10.090Z,6.30
2019-02-09T08:40:38.454Z,6.20
2019-02-09T08:43:06.757Z,6.20
2019-02-09T08:45:35.137Z,6.20
2019-02-09T08:48:03.487Z,6.30
2019-02-09T08:50:53.660Z,6.30
2019-02-09T08:53:43.063Z,6.40
2019-02-09T08:56:11.446Z,6.40
2019-02-09T08:58:59.238Z,6.50
2019-02-09T09:01:27.623Z,6.50
2019-02-09T09:03:55.995Z,6.60
2019-02-09T09:06:24.614Z,6.60
2019-02-09T09:08:53.003Z,6.70
2019-02-09T09:11:21.358Z,6.80
2019-02-09T09:13:49.718Z,6.90
2019-02-09T09:16:18.106Z,6.90
2019-02-09T09:18:46.463Z,7.00
2019-02-09T09:21:15.690Z,7.00
2019-02-09T09:23:44.071Z,7.10
2019-02-09T09:26:14.079Z,7.20
2019-02-09T09:28:42.433Z,7.20
2019-02-09T09:31:10.802Z,7.30
2019-02-09T09:33:39.184Z,7.50
2019-02-09T09:36:07.794Z,7.70
2019-02-09T09:38:36.148Z,7.70
2019-02-09T09:41:04.528Z,7.60
2019-02-09T09:43:34.106Z,7.60
2019-02-09T09:46:02.660Z,7.60
2019-02-09T09:48:31.326Z,7.60
2019-02-09T09:51:00.339Z,7.70
2019-02-09T09:53:30.171Z,7.90
2019-02-09T09:55:58.559Z,8.20
2019-02-09T09:58:26.980Z,8.20
2019-02-09T10:00:55.340Z,8.20
2019-02-09T10:03:24.047Z,8.20
2019-02-09T10:05:52.420Z,8.10
2019-02-09T10:08:20.799Z,8.00
2019-02-09T10:10:52.268Z,7.90
2019-02-09T10:13:20.935Z,7.80
2019-02-09T10:15:49.299Z,7.70
2019-02-09T10:18:17.651Z,8.30
2019-02-09T10:20:46.377Z,9.10
2019-02-09T10:23:14.730Z,10.30
2019-02-09T10:25:43.444Z,10.60
2019-02-09T10:28:11.838Z,10.50
2019-02-09T10:30:40.211Z,10.50
2019-02-09T10:33:09.157Z,10.70
2019-02-09T10:35:37.542Z,10.70
2019-02-09T10:38:05.919Z,10.80
2019-02-09T10:40:36.046Z,10.60
2019-02-09T10:43:06.452Z,10.40
2019-02-09T10:45:36.543Z,10.20
2019-02-09T10:48:06.766Z,10.10
2019-02-09T10:50:40.341Z,9.90
2019-02-09T10:53:08.699Z,9.80
2019-02-09T10:55:37.085Z,9.70
2019-02-09T10:58:05.788Z,9.70
2019-02-09T11:00:58.115Z,9.70
2019-02-09T11:03:27.300Z,9.70
2019-02-09T11:05:55.668Z,9.70
2019-02-09T11:08:24.154Z,9.70
2019-02-09T11:10:52.520Z,9.70
2019-02-09T11:13:41.979Z,9.80
2019-02-09T11:16:10.591Z,9.80
2019-02-09T11:18:39.274Z,9.80
2019-02-09T11:21:07.587Z,9.80
2019-02-09T11:23:36.340Z,9.80
2019-02-09T11:26:04.728Z,9.60
2019-02-09T11:28:33.086Z,9.50
2019-02-09T11:31:01.427Z,9.30
2019-02-09T11:33:30.158Z,9.30
2019-02-09T11:36:04.633Z,9.30
2019-02-09T11:38:33.011Z,9.40
2019-02-09T11:41:01.371Z,9.30
2019-02-09T11:43:29.727Z,9.20
2019-02-09T11:45:58.137Z,9.10
2019-02-09T11:48:26.499Z,9.10
2019-02-09T11:50:54.879Z,9.10
2019-02-09T11:53:23.432Z,9.20
2019-02-09T11:55:51.796Z,9.20
2019-02-09T11:58:21.566Z,9.40
2019-02-09T12:03:39.568Z,9.40
2019-02-09T12:06:07.922Z,9.40
2019-02-09T12:08:36.288Z,9.40
2019-02-09T12:11:04.836Z,9.50
2019-02-09T12:13:33.189Z,9.50
2019-02-09T12:16:01.570Z,9.50
2019-02-09T12:18:30.599Z,9.60
2019-02-09T12:20:58.971Z,9.70
2019-02-09T12:23:30.584Z,9.70
2019-02-09T12:25:58.930Z,9.80
2019-02-09T12:28:27.230Z,9.80
2019-02-09T12:30:55.609Z,9.70
2019-02-09T12:33:23.962Z,9.70
2019-02-09T12:35:52.346Z,9.80
2019-02-09T12:38:21.463Z,9.80
2019-02-09T12:40:49.828Z,9.80
2019-02-09T12:43:18.979Z,9.80
2019-02-09T12:45:47.335Z,9.90
2019-02-09T12:48:15.998Z,9.90
2019-02-09T12:50:44.378Z,9.80
2019-02-09T12:53:12.756Z,9.80
2019-02-09T12:55:41.111Z,9.70
2019-02-09T12:58:10.260Z,9.70
2019-02-09T13:00:40.755Z,9.60
2019-02-09T13:03:11.893Z,9.70
2019-02-09T13:05:40.581Z,9.60
2019-02-09T13:08:08.951Z,9.50
2019-02-09T13:10:37.340Z,9.50
2019-02-09T13:13:05.774Z,9.50
2019-02-09T13:15:55.443Z,9.40
2019-02-09T13:18:23.795Z,9.30
2019-02-09T13:20:52.292Z,9.30
2019-02-09T13:23:20.746Z,9.30
2019-02-09T13:25:49.235Z,9.20
2019-02-09T13:28:17.894Z,9.20
2019-02-09T13:30:46.307Z,9.30
2019-02-09T13:33:14.705Z,9.30
2019-02-09T13:35:43.033Z,9.30
2019-02-09T13:38:11.593Z,9.30
2019-02-09T13:40:40.392Z,9.30
2019-02-09T13:43:08.793Z,9.30
2019-02-09T13:45:45.755Z,9.30
2019-02-09T13:48:14.688Z,9.30
2019-02-09T13:50:43.048Z,9.40
2019-02-09T13:53:11.402Z,9.40
2019-02-09T13:55:39.788Z,9.30
2019-02-09T13:58:08.146Z,9.30
2019-02-09T14:00:36.504Z,9.40
2019-02-09T14:03:07.575Z,9.40
2019-02-09T14:05:36.044Z,9.40
2019-02-09T14:08:04.979Z,9.50
2019-02-09T14:10:34.044Z,9.60
2019-02-09T14:13:02.387Z,9.50
2019-02-09T14:15:38.559Z,9.50
2019-02-09T14:18:11.785Z,9.50
2019-02-09T14:20:40.287Z,9.50
2019-02-09T14:23:08.666Z,9.50
2019-02-09T14:25:37.319Z,9.50
2019-02-09T14:28:07.328Z,9.50
2019-02-09T14:30:37.618Z,9.40
2019-02-09T14:33:08.775Z,9.40
2019-02-09T14:35:37.795Z,9.30
2019-02-09T14:38:06.471Z,9.30
2019-02-09T14:40:34.890Z,9.20
2019-02-09T14:43:16.211Z,9.10
2019-02-09T14:45:44.869Z,9.10
2019-02-09T14:48:13.237Z,9.10
2019-02-09T14:50:41.875Z,9.10
2019-02-09T14:53:10.941Z,9.10
2019-02-09T14:55:39.693Z,9.00
2019-02-09T14:58:08.530Z,9.00
2019-02-09T15:00:45.455Z,9.00
2019-02-09T15:03:14.756Z,9.00
2019-02-09T15:05:43.214Z,9.10
2019-02-09T15:08:11.886Z,9.10
2019-02-09T15:10:40.256Z,9.10
2019-02-09T15:13:10.096Z,9.20
2019-02-09T15:15:47.549Z,9.20
2019-02-09T15:18:15.286Z,9.30
2019-02-09T15:20:49.583Z,9.30
2019-02-09T15:23:17.945Z,9.30
2019-02-09T15:25:46.326Z,9.40
2019-02-09T15:28:14.622Z,9.30
2019-02-09T15:30:42.975Z,9.30
2019-02-09T15:33:11.346Z,9.30
2019-02-09T15:35:40.317Z,9.30
2019-02-09T15:38:08.689Z,9.30
2019-02-09T15:40:37.047Z,9.20
2019-02-09T15:43:05.450Z,9.20
2019-02-09T15:45:34.145Z,9.10
2019-02-09T15:48:02.501Z,9.10
2019-02-09T15:50:31.207Z,9.10
2019-02-09T15:52:59.642Z,9.00
2019-02-09T15:55:28.064Z,9.00
2019-02-09T15:57:56.457Z,9.00
2019-02-09T16:00:29.577Z,8.90
2019-02-09T16:03:19.316Z,8.90
2019-02-09T16:05:47.658Z,8.80
2019-02-09T16:08:15.947Z,8.70
2019-02-09T16:10:44.393Z,8.60
2019-02-09T16:13:12.720Z,8.50
2019-02-09T16:15:42.838Z,8.50
2019-02-09T16:18:11.316Z,8.50
2019-02-09T16:20:39.582Z,8.40
2019-02-09T16:23:08.056Z,8.40
2019-02-09T16:25:36.351Z,8.50
2019-02-09T16:28:04.804Z,8.40
2019-02-09T16:30:33.263Z,8.50
2019-02-09T16:33:01.888Z,8.40
2019-02-09T16:35:32.153Z,8.30
2019-02-09T16:38:01.512Z,8.20
2019-02-09T16:40:34.001Z,8.30
2019-02-09T16:43:02.386Z,8.20
2019-02-09T16:45:38.420Z,8.10
2019-02-09T16:48:08.439Z,8.10
2019-02-09T16:50:36.807Z,8.00
2019-02-09T16:53:06.029Z,8.00
2019-02-09T16:55:34.392Z,7.90
2019-02-09T16:58:02.751Z,7.90
2019-02-09T17:00:40.284Z,7.90
2019-02-09T17:03:08.722Z,7.90
2019-02-09T17:05:37.043Z,8.00
2019-02-09T17:08:05.394Z,8.00
2019-02-09T17:10:33.867Z,8.10
2019-02-09T17:13:02.660Z,8.10
2019-02-09T17:15:31.092Z,8.10
2019-02-09T17:17:59.471Z,8.20
2019-02-09T17:20:27.843Z,8.30
2019-02-09T17:22:56.210Z,8.20
2019-02-09T17:25:25.632Z,8.20
2019-02-09T17:27:54.756Z,8.20
2019-02-09T17:30:30.466Z,8.30
2019-02-09T17:32:58.820Z,8.20
2019-02-09T17:35:27.203Z,8.20
2019-02-09T17:38:14.998Z,8.10
2019-02-09T17:40:56.232Z,8.10
2019-02-09T17:43:24.594Z,8.00
2019-02-09T17:46:17.007Z,8.00
2019-02-09T17:48:45.362Z,8.00
2019-02-09T17:51:14.712Z,8.00
2019-02-09T17:53:43.067Z,7.90
2019-02-09T17:56:11.748Z,7.90
2019-02-09T17:58:40.139Z,7.90
2019-02-09T18:01:11.070Z,7.90
2019-02-09T18:03:39.744Z,7.90
2019-02-09T18:06:08.432Z,7.90
2019-02-09T18:08:36.818Z,7.80
2019-02-09T18:11:05.166Z,7.90
2019-02-09T18:13:33.570Z,7.90
2019-02-09T18:18:53.561Z,7.80
2019-02-09T18:21:22.243Z,7.80
2019-02-09T18:23:50.936Z,7.80
2019-02-09T18:26:19.319Z,7.70
2019-02-09T18:28:47.700Z,7.70
2019-02-09T18:31:16.131Z,7.60
2019-02-09T18:34:04.804Z,7.60
2019-02-09T18:36:33.199Z,7.50
2019-02-09T18:39:02.172Z,7.50
2019-02-09T18:41:30.642Z,7.50
2019-02-09T18:43:59.106Z,7.60
2019-02-09T18:46:27.498Z,7.60
2019-02-09T18:48:56.180Z,7.60
2019-02-09T18:51:24.514Z,7.60
2019-02-09T18:53:52.894Z,7.50
2019-02-09T18:56:21.268Z,7.50
2019-02-09T18:58:49.633Z,7.40
2019-02-09T19:01:19.222Z,7.20
2019-02-09T19:03:47.596Z,7.20
2019-02-09T19:06:15.967Z,7.20
2019-02-09T19:08:44.346Z,7.20
2019-02-09T19:11:12.665Z,7.20
2019-02-09T19:13:41.684Z,7.20
2019-02-09T19:16:10.211Z,7.10
2019-02-09T19:18:38.899Z,7.10
2019-02-09T19:21:28.330Z,7.00
2019-02-09T19:23:57.361Z,7.00
2019-02-09T19:26:26.048Z,6.90
2019-02-09T19:28:55.850Z,6.90
2019-02-09T19:31:25.098Z,6.90
2019-02-09T19:33:53.875Z,6.90
2019-02-09T19:36:22.765Z,7.00
2019-02-09T19:38:51.315Z,6.90
2019-02-09T19:41:21.849Z,6.90
2019-02-09T19:43:50.481Z,6.90
2019-02-09T19:46:18.852Z,6.90
2019-02-09T19:48:47.461Z,6.90
2019-02-09T19:51:16.643Z,6.80
2019-02-09T19:53:45.918Z,6.90
2019-02-09T19:56:14.362Z,6.90
2019-02-09T19:58:44.447Z,6.90
2019-02-09T20:01:13.574Z,6.90
2019-02-09T20:03:42.199Z,6.80
2019-02-09T20:06:10.585Z,6.80
2019-02-09T20:08:39.020Z,6.80
2019-02-09T20:11:08.123Z,6.80
2019-02-09T20:13:36.471Z,6.80
2019-02-09T20:16:05.132Z,6.80
2019-02-09T20:18:33.856Z,6.80
2019-02-09T20:21:02.302Z,6.80
2019-02-09T20:23:30.759Z,6.80
2019-02-09T20:25:59.143Z,6.90
2019-02-09T20:28:27.751Z,6.90
2019-02-09T20:30:56.137Z,6.90
2019-02-09T20:33:24.507Z,6.80
2019-02-09T20:35:52.870Z,6.80
2019-02-09T20:38:22.731Z,6.70
2019-02-09T20:40:56.825Z,6.70
2019-02-09T20:43:25.263Z,6.70
2019-02-09T20:45:53.998Z,6.70
2019-02-09T20:48:22.731Z,6.70
2019-02-09T20:50:51.371Z,6.70
2019-02-09T20:53:19.798Z,6.70
2019-02-09T20:55:48.431Z,6.70
2019-02-09T20:58:16.965Z,6.70
2019-02-09T21:00:45.288Z,6.80
2019-02-09T21:03:15.421Z,6.80
2019-02-09T21:05:44.597Z,6.70
2019-02-09T21:08:13.376Z,6.60
2019-02-09T21:10:46.208Z,6.70
2019-02-09T21:13:14.905Z,6.60
2019-02-09T21:15:43.276Z,6.70
2019-02-09T21:18:11.981Z,6.60
2019-02-09T21:20:42.009Z,6.50
2019-02-09T21:23:10.440Z,6.50
2019-02-09T21:25:44.246Z,6.50
2019-02-09T21:28:13.281Z,6.50
2019-02-09T21:30:42.109Z,6.50
2019-02-09T21:33:11.916Z,6.50
2019-02-09T21:35:44.108Z,6.50
2019-02-09T21:38:10.369Z,6.60
2019-02-09T21:40:38.769Z,6.60
2019-02-09T21:43:07.147Z,6.60
2019-02-09T21:45:35.520Z,6.50
2019-02-09T21:48:04.155Z,6.50
2019-02-09T21:50:36.086Z,6.50
2019-02-09T21:53:05.154Z,6.40
2019-02-09T21:55:33.547Z,6.30
2019-02-09T21:58:02.582Z,6.30
2019-02-09T22:01:01.784Z,6.20
2019-02-09T22:03:30.135Z,6.10
2019-02-09T22:05:59.059Z,6.10
2019-02-09T22:08:27.448Z,6.10
2019-02-09T22:10:55.815Z,6.00
2019-02-09T22:13:24.212Z,6.00
2019-02-09T22:15:52.566Z,6.00
2019-02-09T22:18:21.243Z,6.00
2019-02-09T22:20:52.877Z,6.10
2019-02-09T22:23:20.522Z,6.10
2019-02-09T22:25:48.937Z,6.00
2019-02-09T22:28:17.294Z,6.10
2019-02-09T22:30:45.718Z,6.10
2019-02-09T22:33:14.154Z,6.00
2019-02-09T22:35:42.512Z,5.90
2019-02-09T22:38:10.878Z,5.90
2019-02-09T22:40:41.263Z,5.90
2019-02-09T22:43:09.795Z,5.90
2019-02-09T22:45:38.145Z,5.80
2019-02-09T22:48:27.766Z,5.70
2019-02-09T22:50:56.122Z,5.70
2019-02-09T22:53:24.474Z,5.70
2019-02-09T22:55:52.881Z,5.70
2019-02-09T22:58:21.235Z,5.60
2019-02-09T23:00:53.492Z,5.60
2019-02-09T23:03:24.903Z,5.70
2019-02-09T23:06:32.495Z,5.70
2019-02-09T23:09:00.866Z,5.70
2019-02-09T23:11:29.895Z,5.70
2019-02-09T23:13:58.278Z,5.70
2019-02-09T23:16:28.503Z,5.60
2019-02-09T23:18:59.721Z,5.50
2019-02-09T23:21:28.890Z,5.50
2019-02-09T23:23:57.176Z,5.50
2019-02-09T23:26:27.800Z,5.50
2019-02-09T23:28:56.158Z,5.40
2019-02-09T23:31:25.084Z,5.30
2019-02-09T23:33:53.462Z,5.20
2019-02-09T23:36:21.748Z,5.20
2019-02-09T23:38:50.768Z,5.10
2019-02-09T23:41:19.922Z,5.10
2019-02-09T23:43:48.211Z,5.10
2019-02-09T23:46:18.508Z,5.00
2019-02-09T23:48:47.181Z,5.00
2019-02-09T23:51:15.540Z,5.00
2019-02-09T23:53:43.901Z,4.90
2019-02-09T23:56:12.278Z,4.90
2019-02-09T23:58:41.499Z,4.80
